メインページ
METAR-TAF:

METAR-TAF

空港 :

アルハンゲリスク, ロシア

緯度: 64-30N, 経度: 040-44E, 海抜: 13m

現時点の気象観測

当レポートは30分前の10:00(UTC)に作成
変向風 2kt
気温 17°C
湿度 94%
気圧 1002 hPa
視程10km以上
高度1600ftの雲は散在している, 積乱雲.
弱いにわか雨, 近辺で激しい雷雨

METAR: ULAA 191000Z VRB01MPS 9999 -SHRA VCTS SCT016CB 17/16 Q1002 R26/290060 NOSIG RMK QFE750/1000

時間: 13:30 (10:30 UTC)

予報

当レポートは2時間31分前の07:59(UTC)に作成
予報は19日の 09時(UTC)から 20日の 09時(UTC)まで有効
南/南西の風 8kt
視程10km以上
高度1100ftの千切れ雲あり, 積乱雲.
19日の 09時(UTC)から 19日の 15時(UTC)まで一時的に
の風 14kt、最大27ktの突風を伴う
視程: 0500m
高度200ftの千切れ雲あり
高度1100ftの千切れ雲あり, 積乱雲.
激しい雷雨, 大雨, 雹
19日の 15時(UTC)から 19日の 21時(UTC)まで一時的に
南/南西の風 16kt、最大27ktの突風を伴う
視程: 2100m
高度700ftの千切れ雲あり
高度1100ftの千切れ雲あり, 積乱雲.
激しい雷雨, 小雨, 靄

TAF: ULAA 190759Z 1909/2009 20004MPS 9999 BKN011CB TEMPO 1909/1915 18007G14MPS 0500 +TSRAGR BKN002 BKN011CB TEMPO 1915/1921 20008G14MPS 2100 -TSRA BR BKN007 BKN011CB

4,000以上の空港の気象観測と天気予報(METAR報とTAF報)

利用可能な観測所は地図上に黄色い丸と赤い丸で示す。

丸の上にカーソルを重ねると観測所名を参照できる。

次にクリックすると気象観測と天気予報を参照できる。

マップの切り替え:黒色「×」印の緑ボタンをクリックして拡大、「-」印の緑ボタンをクリックして縮小、緑色の三角印をクリックして隣りの地図に切り替え


METAR-TAF: